createdAt,value
2023-02-19T00:00:56.012Z,95344.34
2023-02-19T00:03:22.866Z,95342.88
2023-02-19T00:05:49.400Z,95342.94
2023-02-19T00:08:15.927Z,95331.72
2023-02-19T00:10:42.444Z,95329.53
2023-02-19T00:13:09.009Z,95330.88
2023-02-19T00:15:36.808Z,95334.09
2023-02-19T00:18:04.922Z,95329.09
2023-02-19T00:20:31.442Z,95327.00
2023-02-19T00:22:57.942Z,95329.97
2023-02-19T00:25:24.471Z,95330.09
2023-02-19T00:27:50.974Z,95326.59
2023-02-19T00:30:17.560Z,95319.44
2023-02-19T00:32:44.100Z,95327.75
2023-02-19T00:35:11.975Z,95320.63
2023-02-19T00:37:38.484Z,95309.56
2023-02-19T00:40:05.697Z,95313.28
2023-02-19T00:42:32.230Z,95303.69
2023-02-19T00:44:58.760Z,95306.09
2023-02-19T00:47:25.277Z,95304.47
2023-02-19T00:49:51.785Z,95303.66
2023-02-19T00:52:19.690Z,95297.25
2023-02-19T00:54:46.225Z,95289.66
2023-02-19T00:57:12.753Z,95291.03
2023-02-19T00:59:39.304Z,95292.34
2023-02-19T01:02:05.838Z,95297.28
2023-02-19T01:04:32.402Z,95294.78
2023-02-19T01:06:59.002Z,95297.97
2023-02-19T01:09:26.969Z,95299.19
2023-02-19T01:11:53.532Z,95295.13
2023-02-19T01:14:20.045Z,95297.66
2023-02-19T01:16:46.623Z,95289.72
2023-02-19T01:19:13.200Z,95283.84
2023-02-19T01:21:40.310Z,95291.41
2023-02-19T01:24:07.156Z,95287.00
2023-02-19T01:26:35.239Z,95268.53
2023-02-19T01:29:02.234Z,95260.69
2023-02-19T01:31:30.334Z,95257.22
2023-02-19T01:33:59.877Z,95257.81
2023-02-19T01:36:28.246Z,95262.59
2023-02-19T01:38:54.897Z,95263.38
2023-02-19T01:41:24.092Z,95263.34
2023-02-19T01:44:01.214Z,95258.28
2023-02-19T01:46:29.033Z,95245.09
2023-02-19T01:48:57.639Z,95249.97
2023-02-19T01:51:24.510Z,95244.44
2023-02-19T01:53:55.297Z,95248.47
2023-02-19T01:56:24.654Z,95253.88
2023-02-19T01:58:51.323Z,95241.88
2023-02-19T02:01:19.446Z,95240.69
2023-02-19T02:03:48.844Z,95243.69
2023-02-19T02:06:20.061Z,95240.63
2023-02-19T02:09:05.897Z,95241.84
2023-02-19T02:11:32.534Z,95238.16
2023-02-19T02:13:59.321Z,95240.09
2023-02-19T02:16:34.848Z,95233.88
2023-02-19T02:19:13.143Z,95225.09
2023-02-19T02:21:57.548Z,95217.13
2023-02-19T02:25:01.342Z,95212.81
2023-02-19T02:27:39.801Z,95203.75
2023-02-19T02:30:21.179Z,95201.38
2023-02-19T02:32:56.395Z,95199.84
2023-02-19T02:35:26.692Z,95196.59
2023-02-19T02:37:56.917Z,95196.78
2023-02-19T02:40:23.765Z,95205.13
2023-02-19T02:42:50.334Z,95206.97
2023-02-19T02:45:36.981Z,95201.81
2023-02-19T02:48:26.856Z,95192.16
2023-02-19T02:50:56.297Z,95194.16
2023-02-19T02:53:46.015Z,95198.66
2023-02-19T02:56:13.359Z,95190.09
2023-02-19T02:58:40.543Z,95184.59
2023-02-19T03:01:30.444Z,95177.75
2023-02-19T03:04:03.060Z,95181.56
2023-02-19T03:06:33.631Z,95169.56
2023-02-19T03:09:06.095Z,95154.13
2023-02-19T03:11:54.373Z,95159.47
2023-02-19T03:14:44.058Z,95147.66
2023-02-19T03:17:33.588Z,95146.66
2023-02-19T03:20:03.923Z,95135.72
2023-02-19T03:22:34.302Z,95140.63
2023-02-19T03:25:22.515Z,95129.41
2023-02-19T03:27:50.995Z,95121.06
2023-02-19T03:30:22.854Z,95125.97
2023-02-19T03:32:55.075Z,95120.59
2023-02-19T03:35:24.620Z,95121.69
2023-02-19T03:38:00.673Z,95121.75
2023-02-19T03:40:30.736Z,95115.19
2023-02-19T03:43:04.314Z,95110.72
2023-02-19T03:45:38.906Z,95118.44
2023-02-19T03:48:19.974Z,95123.13
2023-02-19T03:50:50.218Z,95121.34
2023-02-19T03:53:26.523Z,95117.44
2023-02-19T03:56:03.032Z,95122.06
2023-02-19T03:58:35.244Z,95132.69
2023-02-19T04:01:06.526Z,95128.28
2023-02-19T04:03:40.418Z,95151.50
2023-02-19T04:06:13.748Z,95156.53
2023-02-19T04:08:45.188Z,95155.72
2023-02-19T04:11:12.104Z,95161.94
2023-02-19T04:13:44.255Z,95183.09
2023-02-19T04:16:17.605Z,95177.78
2023-02-19T04:18:47.788Z,95174.00
2023-02-19T04:21:15.498Z,95190.00
2023-02-19T04:23:44.642Z,95186.75
2023-02-19T04:26:13.364Z,95168.69
2023-02-19T04:28:41.034Z,95200.78
2023-02-19T04:31:07.666Z,95188.72
2023-02-19T04:33:34.520Z,95181.66
2023-02-19T04:36:02.564Z,95177.91
2023-02-19T04:38:29.093Z,95179.53
2023-02-19T04:40:55.627Z,95187.66
2023-02-19T04:43:22.181Z,95221.34
2023-02-19T04:45:49.126Z,95228.59
2023-02-19T04:48:15.777Z,95217.94
2023-02-19T04:50:42.309Z,95195.44
2023-02-19T04:53:10.200Z,95224.09
2023-02-19T04:55:37.828Z,95229.19
2023-02-19T04:58:04.531Z,95231.66
2023-02-19T05:00:31.130Z,95228.47
2023-02-19T05:02:57.684Z,95243.41
2023-02-19T05:05:24.200Z,95244.22
2023-02-19T05:07:50.734Z,95227.47
2023-02-19T05:10:18.852Z,95229.84
2023-02-19T05:12:45.371Z,95198.06
2023-02-19T05:15:11.896Z,95184.16
2023-02-19T05:17:38.498Z,95199.38
2023-02-19T05:20:05.568Z,95179.31
2023-02-19T05:22:32.103Z,95190.97
2023-02-19T05:24:58.663Z,95181.34
2023-02-19T05:27:26.525Z,95193.38
2023-02-19T05:29:53.147Z,95203.44
2023-02-19T05:32:19.686Z,95221.28
2023-02-19T05:34:46.219Z,95228.06
2023-02-19T05:37:12.783Z,95220.69
2023-02-19T05:39:39.319Z,95211.84
2023-02-19T05:42:05.849Z,95225.22
2023-02-19T05:44:33.727Z,95229.47
2023-02-19T05:47:00.284Z,95225.19
2023-02-19T05:49:27.836Z,95226.78
2023-02-19T05:51:54.432Z,95224.97
2023-02-19T05:54:20.966Z,95217.53
2023-02-19T05:56:47.568Z,95221.59
2023-02-19T05:59:16.971Z,95217.53
2023-02-19T06:01:45.037Z,95219.13
2023-02-19T06:04:12.460Z,95222.50
2023-02-19T06:06:39.502Z,95211.19
2023-02-19T06:09:06.842Z,95212.75
2023-02-19T06:11:33.806Z,95226.97
2023-02-19T06:14:00.399Z,95226.22
2023-02-19T06:16:27.324Z,95225.13
2023-02-19T06:18:55.433Z,95211.78
2023-02-19T06:21:22.070Z,95232.22
2023-02-19T06:23:48.601Z,95222.69
2023-02-19T06:26:17.953Z,95220.72
2023-02-19T06:28:45.286Z,95217.84
2023-02-19T06:31:13.047Z,95217.66
2023-02-19T06:33:40.756Z,95215.22
2023-02-19T06:36:12.349Z,95224.53
2023-02-19T06:38:38.917Z,95223.50
2023-02-19T06:41:06.953Z,95239.34
2023-02-19T06:43:34.397Z,95237.13
2023-02-19T06:46:03.183Z,95237.00
2023-02-19T06:48:30.940Z,95244.25
2023-02-19T06:50:57.766Z,95244.22
2023-02-19T06:53:26.175Z,95264.72
2023-02-19T06:55:56.787Z,95261.44
2023-02-19T06:58:23.617Z,95258.81
2023-02-19T07:00:50.179Z,95259.22
2023-02-19T07:03:16.777Z,95268.16
2023-02-19T07:05:43.864Z,95265.09
2023-02-19T07:08:10.559Z,95266.19
2023-02-19T07:10:38.465Z,95269.22
2023-02-19T07:13:05.166Z,95282.34
2023-02-19T07:15:31.703Z,95287.47
2023-02-19T07:17:59.124Z,95283.81
2023-02-19T07:20:28.474Z,95276.31
2023-02-19T07:22:56.957Z,95275.47
2023-02-19T07:25:23.467Z,95284.16
2023-02-19T07:27:51.322Z,95284.59
2023-02-19T07:30:17.951Z,95280.13
2023-02-19T07:32:45.385Z,95294.13
2023-02-19T07:35:12.075Z,95292.72
2023-02-19T07:37:40.205Z,95296.75
2023-02-19T07:40:07.350Z,95296.34
2023-02-19T07:42:33.891Z,95304.47
2023-02-19T07:45:01.787Z,95294.72
2023-02-19T07:47:29.184Z,95303.44
2023-02-19T07:49:55.869Z,95313.19
2023-02-19T07:52:22.401Z,95315.41
2023-02-19T07:54:49.051Z,95316.63
2023-02-19T07:57:15.822Z,95324.97
2023-02-19T07:59:42.442Z,95329.00
2023-02-19T08:02:35.464Z,95324.75
2023-02-19T08:05:02.465Z,95332.88
2023-02-19T08:07:32.467Z,95344.44
2023-02-19T08:10:21.700Z,95347.47
2023-02-19T08:13:14.188Z,95343.81
2023-02-19T08:15:40.730Z,95351.34
2023-02-19T08:18:09.705Z,95369.97
2023-02-19T08:20:37.076Z,95380.34
2023-02-19T08:23:03.968Z,95373.44
2023-02-19T08:25:30.653Z,95374.59
2023-02-19T08:27:57.251Z,95383.78
2023-02-19T08:30:23.902Z,95394.13
2023-02-19T08:32:50.509Z,95387.38
2023-02-19T08:35:18.457Z,95406.72
2023-02-19T08:37:45.061Z,95396.16
2023-02-19T08:40:12.377Z,95412.41
2023-02-19T08:42:38.949Z,95414.19
2023-02-19T08:45:06.492Z,95416.63
2023-02-19T08:47:35.476Z,95414.19
2023-02-19T08:50:02.559Z,95415.44
2023-02-19T08:52:30.477Z,95415.84
2023-02-19T08:54:57.119Z,95433.72
2023-02-19T08:57:24.041Z,95429.44
2023-02-19T08:59:50.626Z,95428.84
2023-02-19T09:02:17.285Z,95437.56
2023-02-19T09:04:43.851Z,95443.47
2023-02-19T09:07:12.046Z,95440.19
2023-02-19T09:09:40.659Z,95453.41
2023-02-19T09:12:08.967Z,95460.69
2023-02-19T09:14:36.315Z,95463.34
2023-02-19T09:17:04.403Z,95464.53
2023-02-19T09:19:31.171Z,95462.31
2023-02-19T09:21:58.038Z,95453.19
2023-02-19T09:24:25.055Z,95464.97
2023-02-19T09:26:54.447Z,95475.31
2023-02-19T09:29:22.085Z,95475.50
2023-02-19T09:31:48.724Z,95473.50
2023-02-19T09:34:15.428Z,95476.94
2023-02-19T09:36:42.159Z,95475.13
2023-02-19T09:39:10.392Z,95474.28
2023-02-19T09:41:39.707Z,95465.34
2023-02-19T09:44:11.685Z,95465.97
2023-02-19T09:46:43.210Z,95468.81
2023-02-19T09:49:15.353Z,95466.59
2023-02-19T09:51:45.602Z,95461.72
2023-02-19T09:54:20.298Z,95475.91
2023-02-19T09:56:47.351Z,95476.09
2023-02-19T09:59:20.772Z,95467.59
2023-02-19T10:01:49.530Z,95459.63
2023-02-19T10:04:16.103Z,95471.44
2023-02-19T10:06:43.411Z,95480.38
2023-02-19T10:09:20.959Z,95489.91
2023-02-19T10:11:48.861Z,95477.50
2023-02-19T10:14:21.138Z,95484.44
2023-02-19T10:16:49.623Z,95474.91
2023-02-19T10:19:16.982Z,95480.59
2023-02-19T10:21:44.397Z,95492.94
2023-02-19T10:24:20.498Z,95486.88
2023-02-19T10:26:47.393Z,95490.13
2023-02-19T10:29:13.977Z,95486.06
2023-02-19T10:31:42.027Z,95478.41
2023-02-19T10:34:18.710Z,95479.78
2023-02-19T10:36:48.649Z,95484.00
2023-02-19T10:39:39.441Z,95500.84
2023-02-19T10:42:06.012Z,95500.66
2023-02-19T10:44:38.367Z,95487.91
2023-02-19T10:47:06.484Z,95491.72
2023-02-19T10:49:37.188Z,95503.13
2023-02-19T10:52:20.279Z,95487.47
2023-02-19T10:54:50.992Z,95486.81
2023-02-19T10:57:30.392Z,95482.75
2023-02-19T11:00:01.087Z,95496.00
2023-02-19T11:02:30.056Z,95481.81
2023-02-19T11:05:06.206Z,95490.72
2023-02-19T11:07:33.141Z,95483.78
2023-02-19T11:10:00.403Z,95495.19
2023-02-19T11:12:29.712Z,95488.31
2023-02-19T11:14:56.670Z,95479.56
2023-02-19T11:17:27.692Z,95476.31
2023-02-19T11:19:58.452Z,95472.66
2023-02-19T11:22:31.204Z,95467.94
2023-02-19T11:25:04.375Z,95466.34
2023-02-19T11:27:32.151Z,95457.81
2023-02-19T11:30:33.880Z,95453.41
2023-02-19T11:33:20.220Z,95439.09
2023-02-19T11:35:49.314Z,95436.88
2023-02-19T11:38:17.684Z,95430.50
2023-02-19T11:40:48.060Z,95439.19
2023-02-19T11:43:35.645Z,95425.81
2023-02-19T11:46:09.583Z,95410.56
2023-02-19T11:48:59.121Z,95426.63
2023-02-19T11:51:37.880Z,95428.63
2023-02-19T11:54:18.324Z,95433.91
2023-02-19T11:56:49.307Z,95421.44
2023-02-19T11:59:26.562Z,95413.97
2023-02-19T12:02:31.528Z,95410.75
2023-02-19T12:05:18.256Z,95398.13
2023-02-19T12:08:15.792Z,95415.56
2023-02-19T12:10:56.767Z,95395.34
2023-02-19T12:13:33.010Z,95395.25
2023-02-19T12:16:14.931Z,95395.63
2023-02-19T12:19:02.787Z,95389.50
2023-02-19T12:21:43.662Z,95409.53
2023-02-19T12:24:40.253Z,95388.22
2023-02-19T12:27:20.470Z,95406.03
2023-02-19T12:30:12.785Z,95404.56
2023-02-19T12:33:00.328Z,95393.69
2023-02-19T12:35:46.223Z,95396.81
2023-02-19T12:38:22.292Z,95397.03
2023-02-19T12:41:10.435Z,95403.78
2023-02-19T12:43:40.922Z,95401.50
2023-02-19T12:46:14.879Z,95415.09
2023-02-19T12:48:49.115Z,95425.31
2023-02-19T12:51:20.797Z,95438.06
2023-02-19T12:53:50.529Z,95436.38
2023-02-19T12:56:20.898Z,95438.88
2023-02-19T12:58:50.528Z,95435.66
2023-02-19T13:01:20.895Z,95452.53
2023-02-19T13:03:53.760Z,95475.88
2023-02-19T13:06:36.374Z,95470.38
2023-02-19T13:09:10.923Z,95468.50
2023-02-19T13:11:44.483Z,95453.94
2023-02-19T13:14:18.510Z,95456.44
2023-02-19T13:16:48.852Z,95458.44
2023-02-19T13:19:15.420Z,95476.78
2023-02-19T13:22:05.204Z,95478.84
2023-02-19T13:24:36.273Z,95469.66
2023-02-19T13:27:30.638Z,95470.28
2023-02-19T13:30:11.928Z,95477.03
2023-02-19T13:32:53.450Z,95463.56
2023-02-19T13:35:49.173Z,95479.88
2023-02-19T13:38:17.290Z,95478.38
2023-02-19T13:40:54.309Z,95485.50
2023-02-19T13:43:25.608Z,95481.00
2023-02-19T13:45:56.548Z,95483.44
2023-02-19T13:48:29.624Z,95488.97
2023-02-19T13:51:46.728Z,95488.41
2023-02-19T13:54:22.677Z,95479.53
2023-02-19T13:56:50.135Z,95471.59
2023-02-19T13:59:35.960Z,95477.09
2023-02-19T14:02:32.357Z,95479.16
2023-02-19T14:05:01.204Z,95471.84
2023-02-19T14:07:54.361Z,95471.03
2023-02-19T14:10:54.247Z,95470.44
2023-02-19T14:13:55.647Z,95474.91
2023-02-19T14:16:48.346Z,95477.13
2023-02-19T14:19:16.320Z,95485.47
2023-02-19T14:21:43.897Z,95481.19
2023-02-19T14:24:11.719Z,95485.06
2023-02-19T14:26:41.398Z,95492.16
2023-02-19T14:29:08.901Z,95496.63
2023-02-19T14:31:37.673Z,95498.66
2023-02-19T14:34:06.900Z,95488.72
2023-02-19T14:36:40.492Z,95492.72
2023-02-19T14:39:14.069Z,95492.91
2023-02-19T14:41:45.679Z,95496.97
2023-02-19T14:44:17.924Z,95502.91
2023-02-19T14:46:51.462Z,95504.69
2023-02-19T14:49:25.375Z,95497.13
2023-02-19T14:51:56.115Z,95492.47
2023-02-19T14:54:35.606Z,95487.03
2023-02-19T14:57:04.462Z,95506.16
2023-02-19T14:59:31.347Z,95507.19
2023-02-19T15:02:00.839Z,95506.38
2023-02-19T15:04:29.928Z,95521.78
2023-02-19T15:07:00.840Z,95516.09
2023-02-19T15:09:32.342Z,95524.63
2023-02-19T15:12:00.240Z,95528.28
2023-02-19T15:14:30.655Z,95524.22
2023-02-19T15:17:00.096Z,95521.19
2023-02-19T15:19:27.352Z,95519.56
2023-02-19T15:21:55.065Z,95523.81
2023-02-19T15:24:22.047Z,95525.03
2023-02-19T15:26:51.574Z,95523.00
2023-02-19T15:29:20.640Z,95525.84
2023-02-19T15:31:50.298Z,95529.72
2023-02-19T15:34:18.348Z,95524.22
2023-02-19T15:36:45.327Z,95522.41
2023-02-19T15:39:19.716Z,95528.28
2023-02-19T15:41:52.471Z,95518.94
2023-02-19T15:44:31.791Z,95523.63
2023-02-19T15:47:04.789Z,95539.66
2023-02-19T15:49:39.593Z,95538.22
2023-02-19T15:52:11.775Z,95545.31
2023-02-19T15:54:54.434Z,95544.09
2023-02-19T15:57:28.858Z,95548.97
2023-02-19T16:00:02.534Z,95555.47
2023-02-19T16:02:30.649Z,95562.75
2023-02-19T16:04:57.442Z,95552.56
2023-02-19T16:07:25.967Z,95547.41
2023-02-19T16:10:06.923Z,95557.97
2023-02-19T16:12:33.705Z,95563.53
2023-02-19T16:15:11.938Z,95564.38
2023-02-19T16:17:43.084Z,95570.47
2023-02-19T16:20:20.125Z,95560.38
2023-02-19T16:22:46.898Z,95553.91
2023-02-19T16:25:26.355Z,95543.19
2023-02-19T16:27:53.162Z,95544.34
2023-02-19T16:30:28.724Z,95548.47
2023-02-19T16:33:22.443Z,95551.72
2023-02-19T16:35:52.128Z,95565.91
2023-02-19T16:38:19.872Z,95565.00
2023-02-19T16:41:06.152Z,95570.28
2023-02-19T16:43:41.105Z,95573.97
2023-02-19T16:46:11.707Z,95579.28
2023-02-19T16:48:39.687Z,95594.06
2023-02-19T16:51:07.803Z,95610.63
2023-02-19T16:53:34.749Z,95611.16
2023-02-19T16:56:01.896Z,95613.34
2023-02-19T16:58:28.501Z,95609.38
2023-02-19T17:00:56.073Z,95608.66
2023-02-19T17:03:24.845Z,95624.78
2023-02-19T17:05:53.422Z,95629.56
2023-02-19T17:08:31.029Z,95630.38
2023-02-19T17:10:58.121Z,95627.56
2023-02-19T17:13:24.683Z,95644.88
2023-02-19T17:15:51.232Z,95647.13
2023-02-19T17:18:17.848Z,95651.03
2023-02-19T17:20:48.452Z,95655.50
2023-02-19T17:23:16.659Z,95657.94
2023-02-19T17:25:43.237Z,95663.00
2023-02-19T17:28:09.776Z,95670.78
2023-02-19T17:30:37.791Z,95664.94
2023-02-19T17:33:06.254Z,95666.16
2023-02-19T17:35:32.814Z,95666.28
2023-02-19T17:37:59.392Z,95671.16
2023-02-19T17:40:33.433Z,95676.03
2023-02-19T17:43:00.602Z,95673.06
2023-02-19T17:45:27.312Z,95667.38
2023-02-19T17:47:53.849Z,95676.72
2023-02-19T17:50:23.552Z,95691.94
2023-02-19T17:52:49.959Z,95704.78
2023-02-19T17:55:18.386Z,95715.34
2023-02-19T17:57:47.444Z,95714.97
2023-02-19T18:00:15.645Z,95712.03
2023-02-19T18:02:42.491Z,95723.94
2023-02-19T18:05:09.515Z,95725.22
2023-02-19T18:07:36.096Z,95730.41
2023-02-19T18:10:03.192Z,95743.59
2023-02-19T18:12:29.722Z,95735.53
2023-02-19T18:14:57.916Z,95734.41
2023-02-19T18:17:25.178Z,95738.59
2023-02-19T18:19:52.745Z,95747.47
2023-02-19T18:22:19.480Z,95746.81
2023-02-19T18:24:47.305Z,95747.19
2023-02-19T18:27:14.887Z,95743.00
2023-02-19T18:29:41.938Z,95753.84
2023-02-19T18:32:10.375Z,95750.81
2023-02-19T18:34:37.153Z,95759.19
2023-02-19T18:37:03.896Z,95757.44
2023-02-19T18:39:30.493Z,95772.56
2023-02-19T18:41:58.185Z,95773.19
2023-02-19T18:44:25.384Z,95768.91
2023-02-19T18:46:52.137Z,95770.53
2023-02-19T18:49:20.356Z,95762.63
2023-02-19T18:51:46.997Z,95771.78
2023-02-19T18:54:13.585Z,95770.97
2023-02-19T18:56:42.091Z,95773.78
2023-02-19T18:59:09.071Z,95775.00
2023-02-19T19:01:35.924Z,95788.38
2023-02-19T19:04:02.872Z,95781.91
2023-02-19T19:06:31.131Z,95788.81
2023-02-19T19:09:00.915Z,95788.59
2023-02-19T19:11:27.835Z,95798.66
2023-02-19T19:13:54.469Z,95793.66
2023-02-19T19:16:23.521Z,95798.94
2023-02-19T19:18:50.149Z,95797.28
2023-02-19T19:21:17.088Z,95802.06
2023-02-19T19:23:45.255Z,95804.34
2023-02-19T19:26:13.004Z,95803.75
2023-02-19T19:28:44.212Z,95802.59
2023-02-19T19:31:11.852Z,95800.91
2023-02-19T19:33:38.722Z,95791.84
2023-02-19T19:36:06.327Z,95779.66
2023-02-19T19:38:33.210Z,95791.22
2023-02-19T19:41:01.294Z,95788.13
2023-02-19T19:43:28.392Z,95785.75
2023-02-19T19:45:55.637Z,95779.28
2023-02-19T19:48:23.105Z,95781.66
2023-02-19T19:50:49.729Z,95784.28
2023-02-19T19:53:16.829Z,95776.53
2023-02-19T19:55:43.518Z,95779.41
2023-02-19T19:58:11.449Z,95782.19
2023-02-19T20:00:37.980Z,95780.28
2023-02-19T20:03:05.481Z,95781.03
2023-02-19T20:05:32.050Z,95781.72
2023-02-19T20:07:58.602Z,95783.66
2023-02-19T20:10:25.178Z,95774.00
2023-02-19T20:12:51.787Z,95775.06
2023-02-19T20:15:22.110Z,95773.56
2023-02-19T20:17:48.822Z,95780.44
2023-02-19T20:20:16.292Z,95782.59
2023-02-19T20:22:42.854Z,95777.25
2023-02-19T20:25:09.631Z,95784.97
2023-02-19T20:27:36.180Z,95778.09
2023-02-19T20:30:03.671Z,95784.13
2023-02-19T20:32:31.613Z,95772.56
2023-02-19T20:34:58.196Z,95776.34
2023-02-19T20:37:24.759Z,95785.56
2023-02-19T20:39:51.409Z,95788.78
2023-02-19T20:42:18.544Z,95791.50
2023-02-19T20:44:45.314Z,95783.72
2023-02-19T20:47:11.917Z,95787.50
2023-02-19T20:49:44.297Z,95786.84
2023-02-19T20:52:10.886Z,95780.09
2023-02-19T20:54:38.303Z,95786.84
2023-02-19T20:57:05.791Z,95790.06
2023-02-19T20:59:35.370Z,95781.66
2023-02-19T21:02:02.792Z,95792.19
2023-02-19T21:04:29.392Z,95796.69
2023-02-19T21:06:57.456Z,95796.41
2023-02-19T21:09:24.172Z,95796.69
2023-02-19T21:11:51.287Z,95788.16
2023-02-19T21:14:18.241Z,95785.50
2023-02-19T21:16:45.068Z,95785.41
2023-02-19T21:19:11.720Z,95789.78
2023-02-19T21:21:40.212Z,95782.97
2023-02-19T21:24:09.616Z,95781.41
2023-02-19T21:26:39.297Z,95786.19
2023-02-19T21:29:06.855Z,95791.13
2023-02-19T21:31:38.571Z,95791.63
2023-02-19T21:34:05.804Z,95793.81
2023-02-19T21:36:32.437Z,95788.53
2023-02-19T21:38:59.059Z,95801.09
2023-02-19T21:41:27.168Z,95803.97
2023-02-19T21:43:54.358Z,95796.88
2023-02-19T21:46:21.150Z,95799.97
2023-02-19T21:48:47.921Z,95803.91
2023-02-19T21:51:14.547Z,95793.81
2023-02-19T21:53:41.160Z,95803.47
2023-02-19T21:56:08.673Z,95808.50
2023-02-19T21:58:36.661Z,95794.59
2023-02-19T22:01:03.421Z,95796.78
2023-02-19T22:03:30.831Z,95787.69
2023-02-19T22:06:01.190Z,95794.13
2023-02-19T22:08:27.783Z,95802.22
2023-02-19T22:10:54.330Z,95790.66
2023-02-19T22:13:20.933Z,95793.56
2023-02-19T22:15:48.845Z,95800.78
2023-02-19T22:18:15.451Z,95804.34
2023-02-19T22:20:42.103Z,95797.06
2023-02-19T22:23:08.638Z,95800.53
2023-02-19T22:25:35.201Z,95804.13
2023-02-19T22:28:03.533Z,95800.09
2023-02-19T22:30:30.133Z,95792.94
2023-02-19T22:32:58.082Z,95805.63
2023-02-19T22:35:25.436Z,95811.38
2023-02-19T22:37:51.986Z,95808.81
2023-02-19T22:40:18.555Z,95815.56
2023-02-19T22:42:45.215Z,95806.63
2023-02-19T22:45:12.280Z,95810.00
2023-02-19T22:47:39.967Z,95805.72
2023-02-19T22:50:09.203Z,95808.56
2023-02-19T22:52:35.756Z,95815.91
2023-02-19T22:55:02.327Z,95817.31
2023-02-19T22:57:28.859Z,95805.69
2023-02-19T22:59:55.440Z,95810.81
2023-02-19T23:02:22.096Z,95812.88
2023-02-19T23:04:48.886Z,95822.53
2023-02-19T23:07:16.753Z,95819.97
2023-02-19T23:09:44.612Z,95813.81
2023-02-19T23:12:11.762Z,95812.88
2023-02-19T23:14:38.533Z,95814.97
2023-02-19T23:17:05.273Z,95819.28
2023-02-19T23:19:32.373Z,95821.41
2023-02-19T23:21:59.273Z,95809.63
2023-02-19T23:24:27.161Z,95805.88
2023-02-19T23:26:54.527Z,95817.53
2023-02-19T23:29:25.390Z,95823.16
2023-02-19T23:31:54.238Z,95816.13
2023-02-19T23:34:21.988Z,95812.25
2023-02-19T23:36:50.390Z,95809.94
2023-02-19T23:39:19.488Z,95819.34
2023-02-19T23:41:48.473Z,95822.78
2023-02-19T23:44:15.246Z,95822.88
2023-02-19T23:46:41.883Z,95820.53
2023-02-19T23:49:08.584Z,95822.97
2023-02-19T23:51:35.244Z,95818.72
2023-02-19T23:54:01.783Z,95820.28
2023-02-19T23:56:29.425Z,95815.44
2023-02-19T23:58:57.363Z,95818.25
